Time;durP1;ratioP1;P1;durP2;ratioP2;P2;SDS_P1;SDS_P2;PMS_P1;PMS_P2;Temp;Humidity;BMP_temperature;BMP_pressure;BME280_temperature;BME280_humidity;BME280_pressure;Samples;Min_cycle;Max_cycle;Signal;HPM_P1;HPM_P2
2022/10/27 00:01:56;;;;;;;10.07;4.47;;;13.50;99.90;;;;;;4974959;28;20049;-77
2022/10/27 00:04:22;;;;;;;11.68;4.28;;;13.40;99.90;;;;;;4986754;28;20394;-80
2022/10/27 00:06:47;;;;;;;12.38;4.82;;;13.50;99.90;;;;;;4972564;28;20048;-79
2022/10/27 00:09:13;;;;;;;12.65;5.10;;;13.50;99.90;;;;;;4993673;28;20045;-80
2022/10/27 00:11:39;;;;;;;14.30;4.70;;;13.50;99.90;;;;;;4995109;28;20098;-80
2022/10/27 00:14:05;;;;;;;14.95;4.78;;;13.50;99.90;;;;;;4993682;28;20386;-80
2022/10/27 00:16:30;;;;;;;11.38;4.72;;;13.50;99.90;;;;;;4992818;28;20048;-79
2022/10/27 00:18:56;;;;;;;21.00;5.20;;;13.50;99.90;;;;;;5009025;28;20041;-80
2022/10/27 00:21:23;;;;;;;11.05;4.68;;;13.50;99.90;;;;;;4972942;28;20045;-77
2022/10/27 00:23:50;;;;;;;16.60;5.40;;;13.50;99.90;;;;;;4991379;28;20489;-80
2022/10/27 00:26:17;;;;;;;17.20;4.68;;;13.60;99.90;;;;;;5022391;28;20516;-81
2022/10/27 00:28:42;;;;;;;12.48;4.57;;;13.50;99.90;;;;;;4982889;28;20064;-80
2022/10/27 00:31:20;;;;;;;12.32;4.78;;;13.50;99.90;;;;;;5012368;28;20501;-77
2022/10/27 00:33:47;;;;;;;13.82;4.40;;;13.60;99.90;;;;;;5015857;28;20404;-78
2022/10/27 00:36:19;;;;;;;13.48;6.15;;;13.50;99.90;;;;;;5013999;28;20045;-81
2022/10/27 00:38:44;;;;;;;11.63;5.10;;;13.60;99.90;;;;;;5015505;28;20932;-80
2022/10/27 00:41:38;;;;;;;11.30;5.10;;;13.50;99.90;;;;;;4962214;28;20033;-80
2022/10/27 00:44:30;;;;;;;15.90;6.50;;;13.60;99.90;;;;;;5008117;28;20049;-80
2022/10/27 00:46:58;;;;;;;12.20;5.13;;;13.50;99.90;;;;;;5011697;28;20057;-81
2022/10/27 00:49:29;;;;;;;11.77;5.05;;;13.50;99.90;;;;;;5015971;28;20045;-81
2022/10/27 00:52:01;;;;;;;14.50;5.15;;;13.50;99.90;;;;;;5010758;28;20037;-80
2022/10/27 00:54:31;;;;;;;12.82;4.60;;;13.40;99.90;;;;;;4993430;28;20041;-81
2022/10/27 00:56:57;;;;;;;14.55;5.55;;;13.80;99.90;;;;;;5016129;28;20076;-81
2022/10/27 00:59:24;;;;;;;13.30;5.28;;;13.40;99.90;;;;;;4964752;28;20049;-80
2022/10/27 01:01:51;;;;;;;12.27;4.90;;;13.40;99.90;;;;;;4986454;28;20037;-81
2022/10/27 01:04:33;;;;;;;16.35;5.13;;;13.40;99.90;;;;;;5010089;28;20401;-81
2022/10/27 01:06:59;;;;;;;12.82;5.35;;;13.40;99.90;;;;;;5023844;28;20382;-81
2022/10/27 01:09:25;;;;;;;15.02;6.15;;;13.30;99.90;;;;;;4994418;28;20033;-81
2022/10/27 01:11:51;;;;;;;13.15;5.75;;;13.30;99.90;;;;;;4989855;28;20048;-80
2022/10/27 01:14:16;;;;;;;14.20;5.90;;;13.30;99.90;;;;;;4985406;28;20076;-80
2022/10/27 01:16:57;;;;;;;15.50;6.47;;;13.30;99.90;;;;;;4993879;28;20041;-79
2022/10/27 01:19:57;;;;;;;10.55;5.78;;;13.30;99.90;;;;;;5012676;28;20041;-81
2022/10/27 01:22:29;;;;;;;16.60;6.40;;;13.30;99.90;;;;;;5005648;28;20072;-79
2022/10/27 01:25:13;;;;;;;13.20;7.13;;;13.30;99.90;;;;;;5012578;28;20041;-80
2022/10/27 01:28:14;;;;;;;14.77;7.57;;;13.30;99.90;;;;;;4993098;28;20038;-78
2022/10/27 01:31:01;;;;;;;15.70;7.00;;;13.30;99.90;;;;;;5016832;28;20100;-79
2022/10/27 01:33:56;;;;;;;14.52;8.63;;;13.20;99.90;;;;;;4997603;28;20076;-80
2022/10/27 01:36:23;;;;;;;11.30;8.38;;;13.20;99.90;;;;;;4993456;28;20512;-80
2022/10/27 01:39:03;;;;;;;16.27;9.15;;;13.30;99.90;;;;;;5010901;28;20041;-81
2022/10/27 01:41:53;;;;;;;16.45;10.88;;;13.20;99.90;;;;;;4998100;28;20045;-81
2022/10/27 01:44:29;;;;;;;15.32;9.30;;;13.30;99.90;;;;;;5009058;28;20255;-81
2022/10/27 01:46:56;;;;;;;20.20;10.77;;;13.20;99.90;;;;;;5025238;28;20081;-80
2022/10/27 01:49:22;;;;;;;18.65;11.27;;;13.20;99.90;;;;;;5011356;28;20043;-81
2022/10/27 01:51:49;;;;;;;18.02;10.60;;;13.20;99.90;;;;;;4998562;28;20033;-78
2022/10/27 01:54:18;;;;;;;14.30;11.07;;;13.20;99.90;;;;;;4999153;28;20033;-79
2022/10/27 01:57:06;;;;;;;19.50;10.98;;;13.20;99.90;;;;;;5028204;28;20084;-81
2022/10/27 01:59:32;;;;;;;18.50;11.23;;;13.20;99.90;;;;;;5010446;28;20101;-81
2022/10/27 02:02:11;;;;;;;19.98;11.50;;;13.20;99.90;;;;;;5012941;28;20611;-79
2022/10/27 02:04:44;;;;;;;14.90;10.32;;;13.20;99.90;;;;;;5011990;28;22158;-78
2022/10/27 02:07:16;;;;;;;25.02;12.93;;;13.20;99.90;;;;;;5019535;28;20045;-80
2022/10/27 02:09:44;;;;;;;22.23;11.43;;;13.20;99.90;;;;;;5027215;28;20041;-80
2022/10/27 02:12:21;;;;;;;16.42;10.68;;;13.30;99.90;;;;;;5015186;28;20140;-80
2022/10/27 02:14:50;;;;;;;17.10;10.18;;;13.30;99.90;;;;;;4996440;28;20128;-80
2022/10/27 02:17:18;;;;;;;18.48;12.15;;;13.20;99.90;;;;;;5010345;28;20044;-80
2022/10/27 02:19:47;;;;;;;18.45;11.52;;;13.30;99.90;;;;;;5018888;28;20124;-81
2022/10/27 02:22:14;;;;;;;20.30;11.13;;;13.30;99.90;;;;;;4988264;28;20143;-80
2022/10/27 02:24:41;;;;;;;17.83;11.85;;;13.30;99.90;;;;;;4969764;28;20033;-80
2022/10/27 02:27:17;;;;;;;18.75;12.25;;;13.30;99.90;;;;;;4990312;28;20048;-81
2022/10/27 02:29:46;;;;;;;16.48;10.98;;;13.30;99.90;;;;;;5011823;28;20105;-80
2022/10/27 02:32:18;;;;;;;20.85;12.95;;;13.30;99.90;;;;;;4996426;28;20045;-81
2022/10/27 02:34:46;;;;;;;21.60;12.77;;;13.30;99.90;;;;;;4989859;28;20048;-81
2022/10/27 02:37:24;;;;;;;17.27;11.82;;;13.30;99.90;;;;;;4977598;28;20061;-81
2022/10/27 02:39:50;;;;;;;16.27;11.85;;;13.30;99.90;;;;;;5013965;28;20048;-78
2022/10/27 02:42:15;;;;;;;17.67;12.18;;;13.30;99.90;;;;;;4996640;28;20037;-81
2022/10/27 02:44:41;;;;;;;19.85;13.43;;;13.30;99.90;;;;;;4994880;28;20080;-80
2022/10/27 02:47:07;;;;;;;20.15;13.23;;;13.30;99.90;;;;;;4993069;28;20490;-80
2022/10/27 02:49:32;;;;;;;20.23;11.85;;;13.30;99.90;;;;;;5017281;28;20042;-80
2022/10/27 02:51:58;;;;;;;16.60;11.73;;;13.30;99.90;;;;;;5014829;28;20036;-80
2022/10/27 02:54:24;;;;;;;21.63;11.95;;;13.10;99.90;;;;;;5004224;28;20068;-81
2022/10/27 02:56:50;;;;;;;19.58;12.93;;;13.30;99.90;;;;;;4995410;28;20041;-81
2022/10/27 02:59:15;;;;;;;20.95;12.75;;;13.30;99.90;;;;;;4991390;28;20041;-80
2022/10/27 03:01:41;;;;;;;20.10;12.80;;;13.30;99.90;;;;;;4992916;28;20041;-81
2022/10/27 03:04:07;;;;;;;20.90;14.27;;;13.40;99.90;;;;;;5007251;28;20508;-79
2022/10/27 03:06:33;;;;;;;20.92;13.10;;;13.40;99.90;;;;;;4998970;28;20033;-80
2022/10/27 03:08:58;;;;;;;19.75;13.18;;;13.40;99.90;;;;;;4989537;28;20034;-81
2022/10/27 03:11:24;;;;;;;27.80;12.73;;;13.40;99.90;;;;;;4977054;28;20057;-81
2022/10/27 03:13:50;;;;;;;18.17;12.55;;;13.50;99.90;;;;;;4981074;28;20040;-80
2022/10/27 03:16:15;;;;;;;21.60;13.68;;;13.50;99.90;;;;;;5006779;28;20042;-79
2022/10/27 03:18:41;;;;;;;21.85;13.35;;;13.50;99.90;;;;;;4977596;28;20524;-81
2022/10/27 03:21:07;;;;;;;19.63;14.07;;;13.60;99.90;;;;;;4979938;28;20038;-80
2022/10/27 03:23:32;;;;;;;16.33;12.25;;;13.60;99.90;;;;;;4998134;28;20144;-80
2022/10/27 03:25:59;;;;;;;18.92;12.45;;;13.60;99.90;;;;;;5030631;28;20092;-81
2022/10/27 03:28:25;;;;;;;20.50;12.60;;;13.60;99.90;;;;;;5010391;23;20045;-81
2022/10/27 03:30:50;;;;;;;23.00;13.27;;;13.70;99.90;;;;;;4989422;28;20049;-78
2022/10/27 03:33:16;;;;;;;18.80;12.93;;;13.70;99.90;;;;;;5009311;28;20417;-80
2022/10/27 03:35:42;;;;;;;20.65;11.90;;;13.70;99.90;;;;;;4985102;28;20045;-81
2022/10/27 03:38:08;;;;;;;20.40;12.98;;;13.80;99.90;;;;;;4986199;28;20033;-79
2022/10/27 03:40:34;;;;;;;18.50;12.55;;;13.70;99.90;;;;;;5022470;28;20037;-80
2022/10/27 03:43:00;;;;;;;23.60;12.63;;;13.70;99.90;;;;;;5004083;28;20048;-79
2022/10/27 03:45:27;;;;;;;22.95;13.48;;;13.80;99.90;;;;;;4988995;28;20033;-80
2022/10/27 03:48:04;;;;;;;17.17;12.02;;;13.70;99.90;;;;;;5012921;28;20090;-79
2022/10/27 03:50:31;;;;;;;19.80;13.02;;;13.70;99.90;;;;;;5009090;28;20790;-80
2022/10/27 03:52:57;;;;;;;16.35;12.40;;;13.80;99.90;;;;;;5021910;28;20119;-80
2022/10/27 03:55:23;;;;;;;16.70;13.15;;;13.70;99.90;;;;;;5021942;28;20033;-79
2022/10/27 03:57:48;;;;;;;21.75;12.55;;;13.80;99.90;;;;;;5031447;28;20051;-78
2022/10/27 04:00:15;;;;;;;25.13;12.05;;;13.80;99.90;;;;;;5023419;28;20037;-80
2022/10/27 04:02:41;;;;;;;17.35;11.95;;;13.80;99.90;;;;;;5027892;28;20587;-80
2022/10/27 04:05:07;;;;;;;21.00;12.05;;;13.80;99.90;;;;;;5014255;28;20037;-80
2022/10/27 04:07:32;;;;;;;19.45;12.00;;;13.80;99.90;;;;;;5000089;28;20142;-80
2022/10/27 04:09:58;;;;;;;21.13;11.20;;;13.80;99.90;;;;;;4993060;28;20038;-79
2022/10/27 04:12:24;;;;;;;23.35;11.68;;;13.70;99.90;;;;;;5026356;28;20029;-80
2022/10/27 04:14:49;;;;;;;19.98;11.30;;;13.80;99.90;;;;;;4991095;28;20040;-79
2022/10/27 04:17:16;;;;;;;22.30;11.80;;;13.70;99.90;;;;;;5026031;28;20049;-80
2022/10/27 04:19:42;;;;;;;18.70;9.98;;;13.70;99.90;;;;;;5009191;28;20059;-81
2022/10/27 04:22:08;;;;;;;19.27;11.85;;;13.80;99.90;;;;;;5023734;28;20033;-78
2022/10/27 04:24:33;;;;;;;19.80;12.32;;;13.70;99.90;;;;;;5031815;28;20143;-79
2022/10/27 04:26:59;;;;;;;20.00;10.52;;;13.70;99.90;;;;;;4998317;28;20428;-80
2022/10/27 04:29:25;;;;;;;19.20;11.52;;;13.80;99.90;;;;;;5014055;28;20040;-80
2022/10/27 04:31:51;;;;;;;22.23;11.63;;;13.80;99.90;;;;;;5016260;28;20041;-78
2022/10/27 04:34:16;;;;;;;17.77;10.50;;;13.80;99.90;;;;;;5013737;28;20032;-81
2022/10/27 04:36:42;;;;;;;16.60;10.38;;;13.80;99.90;;;;;;4996761;28;20546;-78
2022/10/27 04:39:12;;;;;;;19.30;10.82;;;13.80;99.90;;;;;;5017277;28;20746;-81
2022/10/27 04:41:39;;;;;;;16.33;10.73;;;13.70;99.90;;;;;;4987683;28;20037;-81
2022/10/27 04:44:05;;;;;;;16.85;10.27;;;13.70;99.90;;;;;;5020559;28;20069;-80
2022/10/27 04:46:30;;;;;;;19.45;10.98;;;13.80;99.90;;;;;;5008036;28;20147;-79
2022/10/27 04:48:56;;;;;;;18.58;10.85;;;13.70;99.90;;;;;;5011152;28;20107;-80
2022/10/27 04:51:22;;;;;;;21.23;10.75;;;13.80;99.90;;;;;;5014027;28;20061;-78
2022/10/27 04:53:48;;;;;;;16.27;10.30;;;13.70;99.90;;;;;;5016578;28;20163;-79
2022/10/27 04:56:13;;;;;;;16.85;9.38;;;13.70;99.90;;;;;;5029059;28;20412;-80
2022/10/27 04:58:39;;;;;;;21.58;11.77;;;13.80;99.90;;;;;;5031737;28;20048;-81
2022/10/27 05:01:06;;;;;;;15.18;10.02;;;13.70;99.90;;;;;;5027182;28;20037;-79
2022/10/27 05:03:32;;;;;;;19.85;10.68;;;13.70;99.90;;;;;;4999665;28;20139;-81
2022/10/27 05:05:58;;;;;;;16.48;10.93;;;13.80;99.90;;;;;;4993633;28;20069;-80
2022/10/27 05:08:24;;;;;;;22.33;10.85;;;13.80;99.90;;;;;;5023198;28;20066;-79
2022/10/27 05:10:49;;;;;;;18.50;10.38;;;13.20;99.90;;;;;;5008238;28;20094;-80
2022/10/27 05:13:15;;;;;;;21.25;10.60;;;13.80;99.90;;;;;;5020610;28;20041;-79
2022/10/27 05:15:41;;;;;;;17.83;10.82;;;13.80;99.90;;;;;;5008821;28;20725;-79
2022/10/27 05:18:06;;;;;;;18.08;10.75;;;13.80;99.90;;;;;;5009615;28;20037;-80
2022/10/27 05:20:32;;;;;;;14.25;10.00;;;13.80;99.90;;;;;;5021404;28;20041;-80
2022/10/27 05:22:58;;;;;;;19.38;11.32;;;13.80;99.90;;;;;;5004763;28;20052;-81
2022/10/27 05:25:23;;;;;;;19.58;10.68;;;13.90;99.90;;;;;;5017528;28;20175;-78
2022/10/27 05:27:49;;;;;;;19.05;10.88;;;13.90;99.90;;;;;;5037522;28;20032;-79
2022/10/27 05:30:15;;;;;;;15.55;10.02;;;13.90;99.90;;;;;;5002058;28;20041;-79
2022/10/27 05:32:41;;;;;;;16.73;10.95;;;13.80;99.90;;;;;;5003648;28;20168;-79
2022/10/27 05:35:07;;;;;;;19.92;10.90;;;13.90;99.90;;;;;;5002579;28;20045;-79
2022/10/27 05:37:33;;;;;;;15.02;9.77;;;13.90;99.90;;;;;;5001015;28;20037;-80
2022/10/27 05:39:59;;;;;;;16.83;10.45;;;13.90;99.90;;;;;;4979884;28;20044;-79
2022/10/27 05:42:25;;;;;;;18.85;10.30;;;13.90;99.90;;;;;;5002933;28;20057;-80
2022/10/27 05:44:51;;;;;;;15.05;10.30;;;13.90;99.90;;;;;;5017924;28;20056;-78
2022/10/27 05:47:17;;;;;;;17.98;10.50;;;13.90;99.90;;;;;;5022552;28;20037;-79
2022/10/27 05:49:43;;;;;;;16.08;10.13;;;13.90;99.90;;;;;;5021332;28;20389;-81
2022/10/27 05:52:08;;;;;;;19.00;11.68;;;14.00;99.90;;;;;;5015581;28;20041;-79
2022/10/27 05:54:34;;;;;;;13.07;9.10;;;14.00;99.90;;;;;;5019777;28;20041;-78
2022/10/27 05:56:59;;;;;;;16.45;10.73;;;14.00;99.90;;;;;;5002053;28;20505;-79
2022/10/27 05:59:25;;;;;;;15.38;10.15;;;14.00;99.90;;;;;;5005818;28;20033;-78
2022/10/27 06:01:51;;;;;;;15.82;10.40;;;14.00;99.90;;;;;;5022763;28;20040;-79
2022/10/27 06:04:16;;;;;;;13.30;10.27;;;14.00;99.90;;;;;;4989664;28;20044;-78
2022/10/27 06:06:42;;;;;;;19.88;10.45;;;14.60;99.90;;;;;;4988221;28;20477;-77
2022/10/27 06:09:08;;;;;;;17.58;9.40;;;14.50;99.90;;;;;;5008461;28;20124;-78
2022/10/27 06:11:33;;;;;;;16.35;10.10;;;14.00;99.90;;;;;;5021629;28;20048;-80
2022/10/27 06:13:59;;;;;;;17.20;10.05;;;14.00;99.90;;;;;;4990931;28;20409;-80
2022/10/27 06:16:25;;;;;;;19.30;10.77;;;14.10;99.90;;;;;;5006802;28;20159;-80
2022/10/27 06:18:52;;;;;;;16.65;10.55;;;14.00;99.90;;;;;;5000756;28;20060;-78
2022/10/27 06:21:18;;;;;;;14.45;10.18;;;14.10;99.90;;;;;;5007318;28;20071;-80
2022/10/27 06:23:47;;;;;;;17.95;10.60;;;14.10;99.90;;;;;;5003387;28;20044;-78
2022/10/27 06:26:13;;;;;;;17.88;10.55;;;14.10;99.90;;;;;;5005957;28;20152;-80
2022/10/27 06:28:38;;;;;;;14.35;9.52;;;14.10;99.90;;;;;;5005899;28;20115;-81
2022/10/27 06:31:04;;;;;;;17.67;9.98;;;14.10;99.90;;;;;;5004035;28;20190;-80
2022/10/27 06:33:30;;;;;;;20.05;10.82;;;14.10;99.90;;;;;;5022016;28;20873;-81
2022/10/27 06:35:55;;;;;;;17.75;10.57;;;14.10;99.90;;;;;;5001341;28;20033;-80
2022/10/27 06:38:21;;;;;;;16.00;10.25;;;14.00;99.90;;;;;;5014856;28;20045;-78
2022/10/27 06:40:46;;;;;;;13.88;9.88;;;14.10;99.90;;;;;;4982994;28;20044;-78
2022/10/27 06:43:13;;;;;;;16.58;10.05;;;14.10;99.90;;;;;;4990216;28;20052;-79
2022/10/27 06:45:39;;;;;;;16.80;9.90;;;14.10;99.90;;;;;;5018910;28;20098;-81
2022/10/27 06:48:07;;;;;;;14.32;9.70;;;14.00;99.90;;;;;;5009788;28;20033;-80
2022/10/27 06:50:34;;;;;;;14.73;10.00;;;14.10;99.90;;;;;;5022889;28;20494;-83
2022/10/27 06:53:01;;;;;;;14.65;9.85;;;14.10;99.90;;;;;;5008540;28;20130;-81
2022/10/27 06:55:27;;;;;;;16.73;10.45;;;14.00;99.90;;;;;;5010843;28;20043;-80
2022/10/27 06:57:53;;;;;;;17.67;11.07;;;14.00;99.90;;;;;;5003956;28;20037;-80
2022/10/27 07:00:20;;;;;;;15.35;11.60;;;14.00;99.90;;;;;;4993243;28;20132;-81
2022/10/27 07:02:46;;;;;;;17.58;11.55;;;14.00;99.90;;;;;;5024981;28;20044;-80
2022/10/27 07:05:12;;;;;;;19.42;11.02;;;14.00;99.90;;;;;;5019068;28;20052;-80
2022/10/27 07:07:38;;;;;;;20.00;11.93;;;14.00;99.90;;;;;;5009452;28;20615;-81
2022/10/27 07:10:06;;;;;;;15.13;11.15;;;14.10;99.90;;;;;;5036992;28;20051;-80
2022/10/27 07:12:32;;;;;;;14.70;10.85;;;14.00;99.90;;;;;;5007791;28;20061;-83
2022/10/27 07:14:59;;;;;;;14.77;10.52;;;14.10;99.90;;;;;;5026039;28;20403;-81
2022/10/27 07:17:25;;;;;;;17.75;11.18;;;14.00;99.90;;;;;;5026343;28;20045;-80
2022/10/27 07:19:50;;;;;;;20.00;11.10;;;14.10;99.90;;;;;;5009887;28;20041;-80
2022/10/27 07:22:17;;;;;;;18.80;11.35;;;14.10;99.90;;;;;;4990204;28;20029;-81
2022/10/27 07:24:43;;;;;;;18.58;10.27;;;14.10;99.90;;;;;;4987223;28;20067;-78
2022/10/27 07:27:09;;;;;;;15.65;10.60;;;14.10;99.90;;;;;;5023325;28;20524;-78
2022/10/27 07:29:35;;;;;;;15.90;10.40;;;14.10;99.90;;;;;;5020791;28;20415;-80
2022/10/27 07:32:00;;;;;;;16.83;11.02;;;14.10;99.90;;;;;;5011700;28;20033;-80
2022/10/27 07:34:26;;;;;;;17.85;11.23;;;14.10;99.90;;;;;;5032338;28;20037;-78
2022/10/27 07:36:52;;;;;;;19.23;10.70;;;14.10;99.90;;;;;;5012638;28;20099;-79
2022/10/27 07:39:17;;;;;;;19.13;11.98;;;14.20;99.90;;;;;;5014592;28;20045;-80
2022/10/27 07:41:43;;;;;;;16.30;11.07;;;14.20;99.90;;;;;;5008610;28;20570;-81
2022/10/27 07:44:09;;;;;;;15.90;10.10;;;14.20;99.90;;;;;;5000938;28;20459;-80
2022/10/27 07:46:34;;;;;;;16.27;9.77;;;14.20;99.90;;;;;;4994067;28;20133;-78
2022/10/27 07:49:00;;;;;;;16.23;9.70;;;14.30;99.90;;;;;;4992422;28;20405;-79
2022/10/27 07:51:26;;;;;;;13.77;9.35;;;14.30;99.90;;;;;;5004947;28;20531;-80
2022/10/27 07:53:51;;;;;;;15.50;9.45;;;14.30;99.90;;;;;;4992619;28;20280;-79
2022/10/27 07:56:17;;;;;;;15.43;9.25;;;14.30;99.90;;;;;;4993968;28;20580;-80
2022/10/27 07:58:48;;;;;;;12.60;8.88;;;14.40;99.90;;;;;;5022514;28;20049;-78
2022/10/27 08:01:14;;;;;;;12.40;8.60;;;14.40;99.90;;;;;;5028733;28;20092;-80
2022/10/27 08:03:40;;;;;;;13.20;8.55;;;14.50;99.90;;;;;;5012295;28;20120;-80
2022/10/27 08:06:05;;;;;;;12.55;8.05;;;14.50;99.90;;;;;;5011966;28;20079;-81
2022/10/27 08:08:31;;;;;;;13.20;7.50;;;14.50;99.90;;;;;;5018255;28;20106;-81
2022/10/27 08:10:57;;;;;;;10.80;7.38;;;14.50;99.90;;;;;;5012896;28;20037;-79
2022/10/27 08:13:23;;;;;;;15.20;7.93;;;14.60;99.90;;;;;;5011143;28;20037;-80
2022/10/27 08:15:49;;;;;;;12.65;7.55;;;14.60;99.90;;;;;;4995033;28;20033;-79
2022/10/27 08:18:15;;;;;;;12.18;7.75;;;14.60;99.90;;;;;;5001775;28;20053;-80
2022/10/27 08:20:46;;;;;;;11.95;6.88;;;14.60;99.90;;;;;;5026411;28;22570;-80
2022/10/27 08:23:14;;;;;;;10.63;6.60;;;14.60;99.90;;;;;;5014565;28;20412;-78
2022/10/27 08:25:41;;;;;;;10.68;6.90;;;14.60;99.90;;;;;;5037731;28;20045;-80
2022/10/27 08:28:08;;;;;;;13.73;6.65;;;14.70;99.90;;;;;;4992608;28;20422;-81
2022/10/27 08:30:33;;;;;;;11.98;6.90;;;14.70;99.90;;;;;;5009072;28;20120;-78
2022/10/27 08:33:01;;;;;;;12.25;6.75;;;14.80;99.90;;;;;;5003945;28;20128;-79
2022/10/27 08:35:28;;;;;;;10.90;6.80;;;14.90;99.90;;;;;;5002136;28;20041;-77
2022/10/27 08:38:05;;;;;;;15.07;6.45;;;14.90;99.90;;;;;;4983337;28;20041;-78
2022/10/27 08:40:36;;;;;;;9.90;5.80;;;15.00;99.90;;;;;;5015348;28;20559;-79
2022/10/27 08:43:13;;;;;;;11.80;6.18;;;15.10;99.90;;;;;;5011233;28;20073;-78
2022/10/27 08:45:52;;;;;;;8.50;5.82;;;15.20;99.90;;;;;;5014062;28;20382;-80
2022/10/27 08:48:22;;;;;;;10.68;5.28;;;15.30;99.90;;;;;;5030822;28;20092;-79
2022/10/27 08:50:49;;;;;;;12.20;5.90;;;15.40;99.90;;;;;;5011581;28;20037;-79
2022/10/27 08:53:35;;;;;;;8.30;5.07;;;15.50;99.90;;;;;;5018843;28;20045;-81
2022/10/27 08:56:08;;;;;;;12.00;5.53;;;15.60;99.90;;;;;;5025113;28;20043;-80
2022/10/27 08:58:42;;;;;;;9.80;5.10;;;15.70;99.90;;;;;;5026323;28;20049;-80
2022/10/27 09:01:46;;;;;;;6.15;4.60;;;15.80;99.90;;;;;;4998541;28;20041;-77
2022/10/27 09:04:30;;;;;;;9.52;4.68;;;15.90;99.90;;;;;;5018260;28;20064;-79
2022/10/27 09:07:25;;;;;;;8.05;4.88;;;16.00;99.90;;;;;;5020917;28;20098;-80
2022/10/27 09:10:02;;;;;;;10.93;4.93;;;16.10;99.90;;;;;;5006441;28;20082;-76
2022/10/27 09:12:46;;;;;;;7.85;4.95;;;16.10;99.90;;;;;;5007472;28;20120;-79
2022/10/27 09:15:22;;;;;;;8.05;4.70;;;16.10;99.90;;;;;;5013982;28;20045;-80
2022/10/27 09:18:05;;;;;;;10.55;5.63;;;16.20;99.90;;;;;;5029927;28;20060;-81
2022/10/27 09:20:58;;;;;;;7.15;4.93;;;16.20;99.90;;;;;;5007324;28;20489;-80
2022/10/27 09:23:49;;;;;;;9.73;4.65;;;16.30;99.90;;;;;;5010527;28;20044;-79
2022/10/27 09:26:18;;;;;;;8.93;4.88;;;16.30;99.90;;;;;;5013259;28;20098;-79
2022/10/27 09:28:51;;;;;;;9.25;4.80;;;16.40;99.90;;;;;;5027358;23;20617;-56
2022/10/27 09:31:29;;;;;;;8.60;4.28;;;16.50;99.90;;;;;;5024932;28;20120;-55
2022/10/27 09:33:59;;;;;;;8.30;4.47;;;16.50;99.90;;;;;;5024789;28;20029;-52
2022/10/27 09:36:25;;;;;;;9.68;4.47;;;16.50;99.90;;;;;;5008183;28;20765;-55
2022/10/27 09:38:50;;;;;;;10.57;5.38;;;16.50;99.90;;;;;;5029561;28;20037;-56
2022/10/27 09:41:16;;;;;;;8.48;4.70;;;16.50;99.90;;;;;;5032960;28;20071;-55
2022/10/27 09:43:42;;;;;;;9.52;4.68;;;16.60;99.90;;;;;;5007478;28;20348;-56
2022/10/27 09:46:23;;;;;;;8.85;4.47;;;16.50;99.90;;;;;;5011032;28;20474;-56
2022/10/27 09:49:03;;;;;;;8.55;4.82;;;16.60;99.90;;;;;;5025599;28;20541;-56
2022/10/27 09:51:37;;;;;;;12.50;4.50;;;16.50;99.90;;;;;;5037757;28;20045;-56
2022/10/27 09:54:04;;;;;;;10.15;4.32;;;16.50;99.90;;;;;;5037306;28;20095;-53
2022/10/27 09:56:34;;;;;;;12.18;4.50;;;16.60;99.90;;;;;;5026600;28;21809;-54
2022/10/27 09:59:03;;;;;;;6.47;4.35;;;16.60;99.90;;;;;;5035032;28;20591;-52
2022/10/27 10:01:38;;;;;;;8.40;4.53;;;16.60;99.90;;;;;;5015347;28;20053;-55
2022/10/27 10:04:06;;;;;;;10.73;4.47;;;16.70;99.90;;;;;;5027580;28;20048;-55
2022/10/27 10:06:36;;;;;;;8.27;4.75;;;16.70;99.90;;;;;;5030672;28;20045;-55
2022/10/27 10:09:21;;;;;;;11.38;4.70;;;16.80;99.90;;;;;;5035003;28;20044;-56
2022/10/27 10:11:47;;;;;;;6.18;3.97;;;16.80;99.90;;;;;;5028554;28;20068;-55
2022/10/27 10:14:23;;;;;;;6.78;3.72;;;16.80;99.90;;;;;;5028605;28;20358;-55
2022/10/27 10:16:51;;;;;;;8.07;4.32;;;16.90;99.90;;;;;;5013244;28;20041;-55
2022/10/27 10:19:23;;;;;;;6.28;3.70;;;16.90;99.90;;;;;;5013930;28;20226;-54
2022/10/27 10:21:48;;;;;;;7.97;3.95;;;17.00;99.90;;;;;;5029198;28;20063;-54
2022/10/27 10:24:21;;;;;;;11.73;4.60;;;17.00;99.90;;;;;;5015837;28;20432;-56
2022/10/27 10:26:58;;;;;;;11.32;4.10;;;17.10;99.90;;;;;;5036205;28;20503;-56
2022/10/27 10:29:36;;;;;;;6.78;3.70;;;17.10;99.90;;;;;;5026286;28;20051;-55
2022/10/27 10:32:22;;;;;;;6.65;3.55;;;17.10;99.90;;;;;;5027581;28;20060;-54
2022/10/27 10:34:52;;;;;;;10.13;3.72;;;17.10;99.90;;;;;;5033044;28;20060;-55
2022/10/27 10:37:39;;;;;;;8.30;4.00;;;17.20;99.90;;;;;;5012670;28;20053;-54
2022/10/27 10:40:29;;;;;;;9.65;3.58;;;17.30;99.90;;;;;;5034527;28;20040;-56
2022/10/27 10:43:01;;;;;;;8.05;3.40;;;17.50;99.90;;;;;;5031228;28;20052;-54
2022/10/27 10:45:29;;;;;;;6.88;3.42;;;17.50;99.90;;;;;;5030510;28;20040;-54
2022/10/27 10:47:58;;;;;;;7.40;3.25;;;17.70;99.90;;;;;;5017737;28;20067;-55
2022/10/27 10:50:26;;;;;;;7.05;3.00;;;17.90;99.90;;;;;;5010863;28;20207;-55
2022/10/27 10:52:56;;;;;;;7.30;2.78;;;18.10;99.90;;;;;;5025192;28;20300;-55
2022/10/27 10:55:48;;;;;;;6.72;3.08;;;18.20;99.90;;;;;;4998160;28;20396;-54
2022/10/27 10:58:20;;;;;;;6.93;3.10;;;18.30;99.90;;;;;;5013938;28;20459;-56
2022/10/27 11:00:59;;;;;;;7.53;3.05;;;18.40;99.90;;;;;;5029489;28;20044;-55
2022/10/27 11:03:28;;;;;;;7.22;2.88;;;18.40;99.90;;;;;;5014064;28;20419;-55
2022/10/27 11:05:58;;;;;;;6.47;2.72;;;18.40;99.90;;;;;;5038665;28;20058;-56
2022/10/27 11:08:35;;;;;;;8.32;2.67;;;18.50;99.90;;;;;;5033502;28;20156;-53
2022/10/27 11:11:04;;;;;;;6.85;2.90;;;18.60;99.90;;;;;;5027288;28;20056;-54
2022/10/27 11:13:51;;;;;;;8.82;2.60;;;18.60;99.90;;;;;;5012381;28;20037;-55
2022/10/27 11:16:18;;;;;;;8.48;2.70;;;18.60;99.90;;;;;;5020055;28;20685;-55
2022/10/27 11:18:52;;;;;;;6.82;2.50;;;18.60;99.90;;;;;;5029873;28;20099;-53
2022/10/27 11:21:34;;;;;;;6.13;2.60;;;18.80;99.90;;;;;;5034116;28;20090;-55
2022/10/27 11:24:23;;;;;;;8.07;3.85;;;18.80;99.90;;;;;;5036967;28;20124;-57
2022/10/27 11:26:51;;;;;;;7.60;2.28;;;18.80;99.90;;;;;;4996344;28;20053;-55
2022/10/27 11:29:34;;;;;;;6.60;2.35;;;18.90;99.90;;;;;;5037921;28;20041;-55
2022/10/27 11:32:19;;;;;;;5.18;2.22;;;18.90;99.90;;;;;;5050326;28;20044;-54
2022/10/27 11:35:02;;;;;;;6.45;2.22;;;18.90;99.90;;;;;;5036521;28;20411;-55
2022/10/27 11:37:38;;;;;;;4.50;2.13;;;18.90;99.90;;;;;;5027912;28;20307;-55
2022/10/27 11:40:15;;;;;;;5.40;2.67;;;18.90;99.90;;;;;;5035890;28;20053;-56
2022/10/27 11:42:58;;;;;;;5.80;2.45;;;19.00;99.90;;;;;;5030792;28;20553;-55
2022/10/27 11:46:01;;;;;;;8.23;2.22;;;19.10;99.90;;;;;;5026410;28;20041;-56
2022/10/27 11:48:31;;;;;;;5.10;2.15;;;19.20;99.90;;;;;;5034958;28;20422;-57
2022/10/27 11:51:06;;;;;;;5.95;1.92;;;19.30;99.90;;;;;;5011620;28;20067;-54
2022/10/27 11:53:32;;;;;;;6.70;2.10;;;19.50;99.90;;;;;;5037507;28;20075;-57
2022/10/27 11:56:15;;;;;;;4.05;1.70;;;19.60;99.90;;;;;;5020961;28;20037;-55
2022/10/27 11:58:41;;;;;;;4.38;2.15;;;19.70;99.90;;;;;;5035946;28;20041;-57
2022/10/27 12:01:52;;;;;;;4.10;2.05;;;19.80;99.90;;;;;;5021314;28;20056;-57
2022/10/27 12:04:45;;;;;;;4.55;2.20;;;20.00;99.90;;;;;;5036202;28;20041;-56
2022/10/27 12:07:29;;;;;;;5.13;1.70;;;20.10;99.90;;;;;;5032867;28;20049;-58
2022/10/27 12:10:30;;;;;;;3.83;1.90;;;20.20;99.90;;;;;;5036596;28;20488;-57
2022/10/27 12:13:05;;;;;;;4.80;1.83;;;20.20;99.90;;;;;;5028920;28;20045;-56
2022/10/27 12:15:40;;;;;;;3.13;1.30;;;20.20;99.90;;;;;;5027226;28;20033;-55
2022/10/27 12:18:32;;;;;;;3.60;1.45;;;20.20;99.90;;;;;;5037483;28;20084;-57
2022/10/27 12:21:15;;;;;;;7.13;1.70;;;20.10;99.90;;;;;;5020294;28;20049;-58
2022/10/27 12:24:08;;;;;;;3.77;1.67;;;20.00;99.90;;;;;;5044617;28;20515;-57
2022/10/27 12:26:43;;;;;;;2.97;1.60;;;19.90;99.90;;;;;;5012802;28;20057;-55
2022/10/27 12:29:09;;;;;;;6.75;1.67;;;19.80;99.90;;;;;;5023529;28;20090;-58
2022/10/27 12:31:43;;;;;;;4.50;1.35;;;19.70;99.90;;;;;;5041914;28;20378;-58
2022/10/27 12:34:12;;;;;;;5.28;1.98;;;19.70;99.90;;;;;;5033036;28;20040;-58
2022/10/27 12:36:50;;;;;;;5.22;1.30;;;19.70;99.90;;;;;;5031311;28;20124;-58
2022/10/27 12:39:36;;;;;;;3.88;1.45;;;19.70;99.90;;;;;;5037178;28;20076;-58
2022/10/27 12:42:24;;;;;;;3.92;1.50;;;19.70;99.90;;;;;;5032104;28;20045;-58
2022/10/27 12:45:24;;;;;;;2.88;1.20;;;19.70;99.90;;;;;;5035003;28;20056;-58
2022/10/27 12:48:17;;;;;;;6.18;1.38;;;19.70;99.90;;;;;;5039571;28;20045;-59
2022/10/27 12:50:51;;;;;;;3.27;1.47;;;19.80;99.90;;;;;;5044785;28;20045;-58
2022/10/27 12:53:46;;;;;;;3.25;1.38;;;19.80;99.90;;;;;;5021208;28;20542;-58
2022/10/27 12:56:31;;;;;;;4.22;1.33;;;19.80;99.90;;;;;;5008379;28;20103;-58